createdAt,value
2023-01-25T00:00:44.110Z,69.42
2023-01-25T00:03:10.996Z,69.27
2023-01-25T00:05:37.905Z,69.35
2023-01-25T00:08:04.921Z,70.32
2023-01-25T00:10:31.765Z,70.88
2023-01-25T00:12:58.491Z,70.39
2023-01-25T00:15:25.301Z,69.92
2023-01-25T00:17:52.060Z,69.75
2023-01-25T00:20:19.073Z,69.25
2023-01-25T00:22:46.136Z,69.71
2023-01-25T00:25:12.915Z,69.61
2023-01-25T00:27:40.207Z,69.64
2023-01-25T00:30:07.648Z,69.14
2023-01-25T00:33:02.664Z,69.79
2023-01-25T00:35:32.664Z,70.60
2023-01-25T00:38:02.978Z,71.08
2023-01-25T00:40:29.826Z,70.62
2023-01-25T00:43:00.825Z,70.82
2023-01-25T00:45:27.808Z,70.75
2023-01-25T00:47:56.385Z,71.54
2023-01-25T00:50:23.387Z,71.75
2023-01-25T00:52:50.133Z,72.51
2023-01-25T00:55:17.093Z,71.97
2023-01-25T00:57:43.862Z,72.65
2023-01-25T01:00:11.374Z,71.17
2023-01-25T01:02:38.489Z,71.28
2023-01-25T01:05:06.172Z,71.47
2023-01-25T01:07:33.222Z,71.80
2023-01-25T01:10:00.359Z,71.60
2023-01-25T01:12:27.217Z,72.71
2023-01-25T01:14:54.004Z,72.08
2023-01-25T01:17:20.988Z,71.93
2023-01-25T01:19:47.853Z,71.63
2023-01-25T01:22:14.784Z,71.32
2023-01-25T01:24:42.364Z,71.88
2023-01-25T01:27:09.191Z,71.61
2023-01-25T01:29:35.959Z,71.00
2023-01-25T01:32:02.880Z,71.20
2023-01-25T01:34:29.885Z,71.26
2023-01-25T01:36:56.749Z,71.83
2023-01-25T01:39:24.171Z,72.28
2023-01-25T01:41:51.067Z,72.10
2023-01-25T01:44:22.729Z,72.42
2023-01-25T01:46:58.411Z,72.29
2023-01-25T01:49:31.837Z,71.70
2023-01-25T01:52:12.212Z,71.90
2023-01-25T01:54:47.169Z,71.17
2023-01-25T01:57:22.212Z,71.73
2023-01-25T01:59:54.351Z,70.95
2023-01-25T02:02:24.033Z,70.98
2023-01-25T02:04:51.894Z,71.02
2023-01-25T02:07:25.586Z,71.43
2023-01-25T02:09:52.362Z,70.55
2023-01-25T02:12:22.506Z,70.52
2023-01-25T02:14:51.867Z,70.21
2023-01-25T02:17:27.610Z,71.00
2023-01-25T02:20:01.265Z,70.13
2023-01-25T02:22:43.492Z,70.65
2023-01-25T02:25:12.493Z,70.33
2023-01-25T02:27:54.568Z,69.57
2023-01-25T02:30:22.631Z,70.52
2023-01-25T02:32:51.235Z,70.18
2023-01-25T02:35:24.651Z,70.09
2023-01-25T02:37:52.219Z,70.47
2023-01-25T02:40:19.233Z,70.38
2023-01-25T02:42:47.138Z,69.68
2023-01-25T02:45:19.574Z,70.03
2023-01-25T02:47:46.467Z,69.83
2023-01-25T02:50:15.126Z,69.78
2023-01-25T02:52:42.732Z,69.12
2023-01-25T02:55:10.100Z,69.46
2023-01-25T02:57:38.945Z,69.30
2023-01-25T03:00:07.585Z,69.38
2023-01-25T03:02:34.710Z,68.86
2023-01-25T03:05:01.660Z,69.50
2023-01-25T03:07:28.704Z,69.77
2023-01-25T03:09:55.838Z,70.25
2023-01-25T03:12:23.284Z,70.19
2023-01-25T03:14:50.192Z,70.08
2023-01-25T03:17:18.789Z,69.83
2023-01-25T03:19:46.083Z,69.30
2023-01-25T03:22:13.162Z,68.55
2023-01-25T03:24:40.558Z,68.45
2023-01-25T03:27:10.623Z,69.13
2023-01-25T03:29:47.051Z,69.83
2023-01-25T03:32:18.264Z,69.75
2023-01-25T03:34:45.163Z,70.10
2023-01-25T03:37:11.981Z,69.72
2023-01-25T03:39:40.694Z,69.88
2023-01-25T03:42:08.214Z,70.11
2023-01-25T03:44:35.122Z,69.57
2023-01-25T03:47:02.488Z,69.64
2023-01-25T03:49:30.092Z,70.20
2023-01-25T03:51:58.105Z,69.57
2023-01-25T03:54:33.373Z,69.98
2023-01-25T03:57:00.848Z,70.01
2023-01-25T03:59:28.778Z,70.48
2023-01-25T04:01:55.948Z,70.07
2023-01-25T04:04:23.024Z,69.68
2023-01-25T04:06:50.436Z,69.79
2023-01-25T04:09:18.032Z,68.48
2023-01-25T04:11:51.016Z,69.09
2023-01-25T04:14:25.475Z,69.67
2023-01-25T04:17:05.414Z,69.79
2023-01-25T04:19:42.485Z,69.84
2023-01-25T04:22:13.500Z,69.25
2023-01-25T04:24:43.623Z,69.86
2023-01-25T04:27:10.558Z,69.63
2023-01-25T04:29:50.081Z,69.75
2023-01-25T04:32:20.053Z,69.52
2023-01-25T04:34:46.976Z,68.89
2023-01-25T04:37:17.642Z,68.99
2023-01-25T04:39:51.830Z,69.35
2023-01-25T04:42:19.575Z,69.83
2023-01-25T04:44:49.846Z,69.94
2023-01-25T04:47:16.995Z,70.47
2023-01-25T04:49:43.820Z,70.04
2023-01-25T04:52:11.233Z,69.94
2023-01-25T04:54:38.071Z,70.08
2023-01-25T04:57:05.528Z,70.30
2023-01-25T04:59:32.629Z,69.89
2023-01-25T05:01:59.431Z,69.87
2023-01-25T05:04:27.846Z,69.32
2023-01-25T05:06:54.860Z,70.34
2023-01-25T05:09:21.867Z,71.06
2023-01-25T05:11:48.793Z,70.77
2023-01-25T05:14:21.841Z,70.57
2023-01-25T05:16:50.310Z,69.82
2023-01-25T05:19:17.657Z,70.23
2023-01-25T05:21:59.348Z,70.83
2023-01-25T05:24:41.812Z,70.87
2023-01-25T05:27:13.634Z,70.42
2023-01-25T05:30:07.630Z,70.54
2023-01-25T05:32:43.409Z,70.49
2023-01-25T05:35:10.686Z,71.09
2023-01-25T05:37:38.842Z,70.97
2023-01-25T05:40:09.370Z,70.80
2023-01-25T05:42:38.599Z,70.90
2023-01-25T05:45:11.483Z,71.65
2023-01-25T05:47:39.648Z,72.05
2023-01-25T05:50:08.793Z,72.25
2023-01-25T05:52:50.652Z,72.14
2023-01-25T05:55:17.871Z,72.13
2023-01-25T05:57:44.697Z,72.16
2023-01-25T06:00:12.095Z,72.84
2023-01-25T06:02:42.104Z,72.36
2023-01-25T06:05:14.072Z,71.35
2023-01-25T06:07:41.122Z,71.89
2023-01-25T06:10:08.885Z,71.90
2023-01-25T06:12:36.945Z,72.12
2023-01-25T06:15:03.979Z,72.23
2023-01-25T06:17:30.826Z,72.03
2023-01-25T06:20:16.409Z,72.01
2023-01-25T06:23:18.639Z,73.05
2023-01-25T06:25:45.466Z,73.09
2023-01-25T06:28:12.260Z,73.61
2023-01-25T06:30:39.064Z,73.74
2023-01-25T06:33:05.891Z,74.20
2023-01-25T06:35:33.741Z,73.91
2023-01-25T06:38:01.242Z,74.20
2023-01-25T06:40:28.602Z,74.09
2023-01-25T06:42:55.487Z,74.21
2023-01-25T06:45:22.354Z,74.84
2023-01-25T06:47:50.414Z,74.97
2023-01-25T06:50:17.318Z,74.39
2023-01-25T06:52:51.865Z,74.05
2023-01-25T06:55:18.800Z,74.04
2023-01-25T06:57:45.622Z,74.58
2023-01-25T07:00:13.019Z,74.12
2023-01-25T07:02:39.927Z,74.75
2023-01-25T07:05:07.780Z,74.71
2023-01-25T07:07:34.801Z,74.40
2023-01-25T07:10:02.230Z,74.57
2023-01-25T07:12:30.331Z,74.71
2023-01-25T07:14:57.351Z,74.06
2023-01-25T07:17:24.170Z,74.59
2023-01-25T07:19:50.945Z,74.57
2023-01-25T07:22:18.046Z,73.92
2023-01-25T07:24:50.051Z,73.63
2023-01-25T07:27:20.743Z,73.85
2023-01-25T07:29:47.669Z,74.39
2023-01-25T07:32:14.605Z,74.84
2023-01-25T07:34:41.459Z,73.85
2023-01-25T07:37:09.339Z,74.21
2023-01-25T07:39:36.553Z,74.57
2023-01-25T07:42:03.518Z,73.89
2023-01-25T07:44:32.240Z,74.00
2023-01-25T07:47:09.273Z,74.34
2023-01-25T07:49:36.425Z,73.21
2023-01-25T07:52:03.576Z,73.25
2023-01-25T07:54:30.326Z,73.82
2023-01-25T07:56:57.877Z,73.37
2023-01-25T07:59:25.119Z,73.46
2023-01-25T08:01:51.981Z,73.89
2023-01-25T08:04:18.987Z,73.82
2023-01-25T08:06:45.703Z,73.97
2023-01-25T08:09:19.765Z,74.26
2023-01-25T08:11:47.362Z,72.87
2023-01-25T08:14:14.163Z,72.86
2023-01-25T08:16:41.199Z,73.04
2023-01-25T08:19:11.064Z,73.51
2023-01-25T08:21:37.991Z,73.37
2023-01-25T08:24:07.114Z,73.33
2023-01-25T08:26:36.267Z,72.66
2023-01-25T08:29:03.729Z,72.90
2023-01-25T08:31:33.274Z,71.87
2023-01-25T08:34:00.660Z,71.97
2023-01-25T08:36:28.304Z,72.71
2023-01-25T08:39:00.241Z,72.51
2023-01-25T08:41:29.098Z,72.64
2023-01-25T08:43:56.294Z,72.56
2023-01-25T08:46:25.194Z,72.55
2023-01-25T08:48:55.969Z,72.31
2023-01-25T08:51:24.381Z,71.17
2023-01-25T08:53:51.385Z,71.92
2023-01-25T08:56:19.003Z,71.56
2023-01-25T08:58:48.234Z,72.18
2023-01-25T09:01:21.779Z,72.42
2023-01-25T09:03:50.739Z,72.56
2023-01-25T09:06:19.866Z,72.64
2023-01-25T09:08:47.278Z,72.26
2023-01-25T09:11:20.269Z,71.89
2023-01-25T09:13:48.852Z,71.85
2023-01-25T09:16:22.777Z,71.84
2023-01-25T09:18:50.950Z,71.85
2023-01-25T09:21:18.530Z,71.81
2023-01-25T09:24:05.520Z,71.89
2023-01-25T09:26:34.706Z,71.23
2023-01-25T09:29:01.606Z,71.29
2023-01-25T09:31:29.518Z,72.57
2023-01-25T09:33:59.974Z,72.37
2023-01-25T09:36:26.824Z,71.84
2023-01-25T09:38:55.722Z,72.58
2023-01-25T09:41:41.570Z,72.04
2023-01-25T09:44:17.754Z,71.97
2023-01-25T09:46:49.098Z,71.31
2023-01-25T09:49:18.841Z,71.59
2023-01-25T09:52:07.203Z,71.03
2023-01-25T09:54:47.071Z,70.01
2023-01-25T09:57:42.344Z,70.70
2023-01-25T10:00:17.944Z,69.30
2023-01-25T10:02:51.926Z,70.16
2023-01-25T10:05:23.061Z,70.74
2023-01-25T10:07:54.935Z,69.68
2023-01-25T10:10:30.058Z,69.82
2023-01-25T10:12:56.944Z,69.52
2023-01-25T10:15:32.919Z,69.58
2023-01-25T10:18:17.163Z,69.72
2023-01-25T10:20:50.015Z,70.33
2023-01-25T10:23:25.646Z,70.54
2023-01-25T10:26:00.652Z,69.99
2023-01-25T10:28:36.574Z,69.49
2023-01-25T10:31:44.366Z,68.80
2023-01-25T10:34:17.762Z,69.16
2023-01-25T10:36:49.404Z,69.18
2023-01-25T10:39:17.855Z,69.49
2023-01-25T10:41:50.622Z,69.56
2023-01-25T10:44:28.220Z,69.00
2023-01-25T10:47:04.230Z,69.68
2023-01-25T10:49:46.349Z,69.12
2023-01-25T10:52:16.498Z,68.73
2023-01-25T10:54:43.880Z,69.17
2023-01-25T10:57:17.252Z,69.37
2023-01-25T10:59:52.200Z,69.86
2023-01-25T11:02:37.258Z,69.43
2023-01-25T11:05:19.089Z,69.87
2023-01-25T11:07:46.909Z,70.12
2023-01-25T11:10:37.803Z,70.15
2023-01-25T11:13:13.529Z,70.09
2023-01-25T11:15:41.813Z,70.11
2023-01-25T11:18:20.312Z,70.05
2023-01-25T11:20:47.592Z,70.14
2023-01-25T11:23:26.433Z,70.82
2023-01-25T11:25:53.480Z,70.56
2023-01-25T11:28:23.181Z,70.06
2023-01-25T11:30:52.680Z,70.71
2023-01-25T11:33:21.770Z,70.47
2023-01-25T11:35:58.679Z,70.30
2023-01-25T11:38:25.782Z,71.60
2023-01-25T11:41:13.287Z,71.76
2023-01-25T11:43:46.163Z,70.97
2023-01-25T11:46:26.064Z,71.45
2023-01-25T11:49:09.933Z,71.15
2023-01-25T11:52:15.558Z,71.12
2023-01-25T11:54:45.537Z,71.27
2023-01-25T11:57:36.885Z,71.78
2023-01-25T12:00:16.834Z,71.03
2023-01-25T12:03:05.175Z,71.51
2023-01-25T12:05:56.824Z,71.36
2023-01-25T12:08:41.211Z,70.61
2023-01-25T12:11:13.925Z,71.16
2023-01-25T12:14:05.647Z,70.83
2023-01-25T12:16:47.655Z,70.78
2023-01-25T12:19:34.824Z,70.93
2023-01-25T12:22:07.733Z,70.98
2023-01-25T12:24:59.959Z,71.01
2023-01-25T12:27:44.961Z,71.98
2023-01-25T12:30:15.766Z,71.76
2023-01-25T12:32:59.508Z,71.58
2023-01-25T12:35:43.634Z,71.82
2023-01-25T12:38:26.149Z,71.95
2023-01-25T12:40:58.407Z,72.16
2023-01-25T12:43:33.058Z,71.84
2023-01-25T12:46:05.155Z,71.56
2023-01-25T12:48:37.499Z,71.76
2023-01-25T12:51:04.850Z,72.16
2023-01-25T12:53:41.033Z,72.74
2023-01-25T12:56:23.561Z,72.92
2023-01-25T12:58:56.643Z,72.78
2023-01-25T13:01:35.886Z,72.58
2023-01-25T13:04:02.977Z,72.97
2023-01-25T13:06:53.108Z,72.48
2023-01-25T13:10:02.158Z,72.06
2023-01-25T13:12:29.243Z,72.33
2023-01-25T13:14:56.303Z,72.27
2023-01-25T13:17:38.207Z,72.67
2023-01-25T13:20:38.888Z,73.09
2023-01-25T13:23:34.596Z,72.98
2023-01-25T13:26:32.321Z,73.45
2023-01-25T13:29:00.414Z,73.57
2023-01-25T13:31:52.030Z,73.71
2023-01-25T13:34:39.322Z,73.72
2023-01-25T13:37:26.016Z,73.71
2023-01-25T13:40:06.507Z,73.93
2023-01-25T13:42:36.379Z,73.52
2023-01-25T13:45:15.250Z,74.18
2023-01-25T13:47:44.012Z,74.25
2023-01-25T13:50:23.577Z,74.00
2023-01-25T13:52:56.552Z,74.91
2023-01-25T13:55:23.686Z,74.86
2023-01-25T13:57:51.724Z,74.29
2023-01-25T14:00:19.362Z,74.53
2023-01-25T14:02:54.708Z,74.79
2023-01-25T14:05:24.843Z,74.23
2023-01-25T14:07:54.536Z,74.50
2023-01-25T14:10:27.790Z,74.37
2023-01-25T14:13:00.463Z,74.50
2023-01-25T14:15:32.228Z,74.38
2023-01-25T14:18:05.067Z,74.80
2023-01-25T14:20:32.320Z,74.71
2023-01-25T14:22:59.326Z,75.01
2023-01-25T14:25:26.417Z,74.68
2023-01-25T14:28:00.379Z,74.38
2023-01-25T14:30:30.677Z,74.51
2023-01-25T14:33:00.890Z,74.62
2023-01-25T14:35:55.212Z,75.34
2023-01-25T14:38:37.954Z,75.08
2023-01-25T14:41:28.223Z,75.10
2023-01-25T14:43:58.258Z,75.79
2023-01-25T14:46:28.344Z,75.19
2023-01-25T14:49:07.527Z,74.83
2023-01-25T14:51:37.929Z,75.34
2023-01-25T14:54:13.722Z,75.48
2023-01-25T14:56:47.188Z,75.93
2023-01-25T14:59:35.720Z,76.25
2023-01-25T15:02:40.846Z,76.36
2023-01-25T15:05:21.485Z,75.92
2023-01-25T15:07:48.375Z,75.90
2023-01-25T15:10:20.573Z,76.13
2023-01-25T15:13:18.191Z,76.10
2023-01-25T15:15:54.392Z,76.42
2023-01-25T15:18:40.186Z,76.13
2023-01-25T15:21:11.848Z,76.09
2023-01-25T15:23:41.197Z,75.81
2023-01-25T15:26:18.799Z,75.05
2023-01-25T15:28:46.003Z,76.11
2023-01-25T15:31:22.269Z,76.73
2023-01-25T15:33:49.442Z,76.61
2023-01-25T15:36:17.708Z,76.77
2023-01-25T15:38:45.439Z,77.07
2023-01-25T15:41:13.848Z,76.31
2023-01-25T15:43:41.425Z,76.35
2023-01-25T15:46:15.574Z,77.20
2023-01-25T15:48:44.510Z,77.02
2023-01-25T15:51:12.916Z,77.02
2023-01-25T15:53:39.931Z,77.37
2023-01-25T15:56:13.704Z,77.41
2023-01-25T15:58:42.983Z,77.10
2023-01-25T16:01:10.312Z,77.51
2023-01-25T16:03:41.457Z,77.55
2023-01-25T16:06:29.080Z,77.97
2023-01-25T16:08:56.126Z,78.15
2023-01-25T16:11:23.102Z,77.58
2023-01-25T16:13:50.043Z,77.66
2023-01-25T16:16:22.984Z,77.16
2023-01-25T16:18:50.124Z,77.22
2023-01-25T16:21:17.316Z,77.50
2023-01-25T16:23:44.395Z,77.60
2023-01-25T16:26:23.091Z,77.33
2023-01-25T16:28:50.272Z,77.61
2023-01-25T16:31:31.134Z,77.42
2023-01-25T16:33:59.525Z,78.09
2023-01-25T16:36:26.613Z,78.23
2023-01-25T16:38:53.601Z,78.60
2023-01-25T16:41:20.620Z,78.55
2023-01-25T16:43:49.006Z,78.43
2023-01-25T16:46:21.897Z,77.91
2023-01-25T16:48:51.132Z,77.57
2023-01-25T16:51:21.479Z,77.95
2023-01-25T16:53:49.694Z,77.96
2023-01-25T16:56:23.036Z,77.38
2023-01-25T16:58:53.777Z,77.46
2023-01-25T17:01:22.769Z,77.53
2023-01-25T17:03:50.881Z,77.79
2023-01-25T17:06:21.476Z,77.62
2023-01-25T17:08:49.629Z,77.35
2023-01-25T17:11:22.159Z,77.13
2023-01-25T17:13:50.762Z,77.38
2023-01-25T17:16:22.923Z,77.27
2023-01-25T17:19:01.691Z,77.37
2023-01-25T17:21:29.174Z,77.47
2023-01-25T17:23:58.323Z,76.88
2023-01-25T17:26:26.725Z,77.04
2023-01-25T17:28:55.899Z,77.37
2023-01-25T17:31:28.286Z,76.81
2023-01-25T17:33:56.220Z,76.78
2023-01-25T17:36:23.658Z,77.32
2023-01-25T17:38:50.849Z,77.14
2023-01-25T17:41:17.742Z,77.33
2023-01-25T17:43:44.750Z,76.98
2023-01-25T17:46:26.075Z,76.90
2023-01-25T17:48:54.787Z,76.48
2023-01-25T17:51:24.998Z,76.70
2023-01-25T17:53:52.768Z,76.79
2023-01-25T17:56:19.893Z,76.40
2023-01-25T17:58:47.029Z,76.33
2023-01-25T18:01:17.165Z,76.43
2023-01-25T18:03:45.298Z,76.21
2023-01-25T18:06:16.760Z,76.06
2023-01-25T18:08:48.821Z,75.98
2023-01-25T18:11:21.370Z,75.66
2023-01-25T18:13:51.003Z,76.04
2023-01-25T18:16:21.820Z,75.90
2023-01-25T18:18:50.521Z,75.48
2023-01-25T18:21:24.041Z,76.33
2023-01-25T18:24:04.586Z,76.19
2023-01-25T18:26:36.804Z,76.55
2023-01-25T18:29:45.514Z,76.52
2023-01-25T18:32:13.710Z,76.20
2023-01-25T18:34:40.648Z,76.47
2023-01-25T18:37:18.833Z,76.25
2023-01-25T18:39:52.952Z,76.41
2023-01-25T18:42:21.469Z,76.45
2023-01-25T18:44:48.598Z,75.91
2023-01-25T18:47:20.153Z,76.21
2023-01-25T18:49:49.313Z,76.32
2023-01-25T18:52:17.614Z,76.17
2023-01-25T18:54:45.064Z,76.45
2023-01-25T18:57:13.336Z,76.86
2023-01-25T18:59:41.087Z,77.15
2023-01-25T19:02:10.116Z,77.02
2023-01-25T19:04:36.967Z,77.35
2023-01-25T19:07:04.759Z,77.74
2023-01-25T19:09:31.903Z,77.53
2023-01-25T19:11:58.882Z,77.35
2023-01-25T19:14:26.040Z,77.72
2023-01-25T19:16:53.170Z,77.49
2023-01-25T19:19:20.891Z,77.24
2023-01-25T19:21:48.070Z,77.34
2023-01-25T19:24:18.712Z,77.44
2023-01-25T19:26:47.293Z,77.48
2023-01-25T19:29:15.778Z,77.68
2023-01-25T19:31:42.579Z,77.67
2023-01-25T19:34:09.398Z,77.58
2023-01-25T19:36:40.576Z,77.17
2023-01-25T19:39:10.540Z,77.62
2023-01-25T19:41:38.882Z,78.10
2023-01-25T19:44:07.210Z,78.50
2023-01-25T19:46:35.801Z,79.11
2023-01-25T19:49:05.540Z,79.23
2023-01-25T19:51:36.862Z,79.90
2023-01-25T19:54:07.281Z,80.39
2023-01-25T19:56:38.987Z,80.45
2023-01-25T19:59:08.711Z,80.88
2023-01-25T20:01:36.647Z,80.99
2023-01-25T20:04:05.960Z,81.20
2023-01-25T20:06:33.040Z,81.33
2023-01-25T20:08:59.744Z,80.93
2023-01-25T20:11:29.231Z,81.12
2023-01-25T20:13:59.207Z,81.44
2023-01-25T20:16:27.334Z,81.57
2023-01-25T20:18:56.263Z,81.91
2023-01-25T20:21:24.241Z,82.00
2023-01-25T20:23:55.003Z,82.32
2023-01-25T20:26:25.064Z,82.65
2023-01-25T20:28:53.666Z,82.81
2023-01-25T20:31:35.484Z,82.87
2023-01-25T20:34:05.507Z,82.83
2023-01-25T20:36:34.916Z,82.72
2023-01-25T20:39:02.435Z,82.76
2023-01-25T20:41:29.240Z,82.42
2023-01-25T20:44:01.953Z,82.57
2023-01-25T20:46:29.714Z,83.04
2023-01-25T20:48:56.516Z,83.35
2023-01-25T20:51:23.953Z,83.34
2023-01-25T20:53:51.379Z,83.73
2023-01-25T20:56:19.146Z,83.47
2023-01-25T20:58:50.387Z,83.47
2023-01-25T21:01:17.344Z,83.53
2023-01-25T21:03:44.250Z,82.81
2023-01-25T21:06:12.093Z,82.56
2023-01-25T21:08:39.290Z,82.63
2023-01-25T21:11:06.532Z,82.47
2023-01-25T21:13:33.815Z,82.21
2023-01-25T21:16:04.267Z,82.52
2023-01-25T21:18:36.964Z,83.02
2023-01-25T21:21:08.062Z,82.86
2023-01-25T21:23:36.389Z,82.68
2023-01-25T21:26:05.654Z,82.70
2023-01-25T21:28:33.899Z,82.87
2023-01-25T21:31:17.806Z,82.79
2023-01-25T21:33:45.207Z,83.02
2023-01-25T21:36:16.003Z,83.21
2023-01-25T21:38:47.918Z,83.09
2023-01-25T21:41:17.657Z,82.91
2023-01-25T21:44:02.933Z,83.34
2023-01-25T21:46:29.751Z,83.42
2023-01-25T21:49:20.157Z,83.43
2023-01-25T21:51:52.329Z,83.27
2023-01-25T21:54:21.556Z,83.25
2023-01-25T21:56:49.679Z,83.48
2023-01-25T21:59:16.393Z,83.56
2023-01-25T22:01:43.814Z,83.21
2023-01-25T22:04:11.618Z,83.49
2023-01-25T22:06:38.922Z,82.88
2023-01-25T22:09:06.575Z,83.05
2023-01-25T22:11:34.112Z,82.80
2023-01-25T22:14:01.080Z,83.24
2023-01-25T22:16:29.362Z,83.60
2023-01-25T22:18:56.686Z,83.57
2023-01-25T22:21:28.645Z,83.61
2023-01-25T22:23:55.481Z,83.59
2023-01-25T22:26:27.254Z,83.70
2023-01-25T22:28:58.732Z,83.01
2023-01-25T22:31:30.611Z,83.21
2023-01-25T22:33:59.150Z,83.46
2023-01-25T22:36:27.809Z,83.58
2023-01-25T22:38:57.900Z,83.65
2023-01-25T22:41:27.830Z,83.11
2023-01-25T22:43:54.953Z,83.61
2023-01-25T22:46:24.000Z,83.45
2023-01-25T22:48:51.329Z,83.52
2023-01-25T22:51:27.238Z,83.76
2023-01-25T22:53:55.355Z,83.35
2023-01-25T22:56:25.705Z,83.05
2023-01-25T22:58:52.508Z,83.33
2023-01-25T23:01:27.911Z,83.45
2023-01-25T23:03:54.630Z,84.05
2023-01-25T23:06:24.455Z,83.46
2023-01-25T23:08:54.150Z,83.57
2023-01-25T23:11:22.757Z,83.12
2023-01-25T23:14:08.781Z,83.11
2023-01-25T23:16:35.857Z,83.27
2023-01-25T23:19:04.314Z,83.38
2023-01-25T23:21:31.513Z,83.05
2023-01-25T23:24:02.801Z,83.55
2023-01-25T23:26:37.859Z,83.80
2023-01-25T23:29:11.950Z,82.91
2023-01-25T23:31:39.155Z,83.49
2023-01-25T23:34:07.078Z,83.10
2023-01-25T23:36:38.875Z,83.34
2023-01-25T23:39:05.897Z,83.21
2023-01-25T23:41:32.766Z,83.19
2023-01-25T23:44:00.872Z,82.85
2023-01-25T23:46:30.593Z,83.10
2023-01-25T23:48:57.375Z,83.38
2023-01-25T23:51:24.277Z,83.48
2023-01-25T23:53:53.421Z,83.42
2023-01-25T23:56:21.830Z,83.61
2023-01-25T23:58:49.006Z,83.35
